Time;durP1;ratioP1;P1;durP2;ratioP2;P2;SDS_P1;SDS_P2;PMS_P1;PMS_P2;Temp;Humidity;BMP_temperature;BMP_pressure;BME280_temperature;BME280_humidity;BME280_pressure;Samples;Min_cycle;Max_cycle;Signal;HPM_P1;HPM_P2
2022/03/30 00:00:00;;;;;;;16.80;9.00;;;;;;;;;;10471189;27;20062;-58
2022/03/30 00:05:10;;;;;;;14.18;9.02;;;;;;;;;;10471386;27;20081;-59
2022/03/30 00:10:08;;;;;;;17.50;8.90;;;;;;;;;;10469995;27;20589;-58
2022/03/30 00:15:07;;;;;;;17.65;9.45;;;;;;;;;;10470540;27;20071;-58
2022/03/30 00:20:06;;;;;;;15.05;9.10;;;;;;;;;;10470349;27;20039;-58
2022/03/30 00:25:07;;;;;;;14.63;8.80;;;;;;;;;;10469350;27;20517;-58
2022/03/30 00:30:06;;;;;;;19.10;8.88;;;;;;;;;;10476800;27;20070;-57
2022/03/30 00:35:06;;;;;;;13.10;7.43;;;;;;;;;;10469606;27;20081;-58
2022/03/30 00:40:07;;;;;;;17.42;8.20;;;;;;;;;;10467920;27;20156;-58
2022/03/30 00:45:09;;;;;;;12.65;7.70;;;;;;;;;;10468634;27;20082;-58
2022/03/30 00:50:09;;;;;;;18.15;8.45;;;;;;;;;;10468609;27;20058;-60
2022/03/30 00:55:09;;;;;;;16.02;9.50;;;;;;;;;;10467689;27;20108;-59
2022/03/30 01:00:09;;;;;;;14.35;7.90;;;;;;;;;;10468554;27;20521;-59
2022/03/30 01:05:07;;;;;;;13.43;8.23;;;;;;;;;;10468226;27;20086;-59
2022/03/30 01:10:07;;;;;;;14.30;7.85;;;;;;;;;;10467369;27;20078;-59
2022/03/30 01:15:07;;;;;;;12.50;7.20;;;;;;;;;;10467985;27;20060;-59
2022/03/30 01:20:06;;;;;;;15.80;7.68;;;;;;;;;;10467355;27;20082;-59
2022/03/30 01:25:07;;;;;;;14.30;7.78;;;;;;;;;;10467127;27;20086;-59
2022/03/30 01:35:24;;;;;;;17.92;8.07;;;;;;;;;;10467468;27;20455;-58
2022/03/30 01:40:24;;;;;;;14.93;8.65;;;;;;;;;;10466352;27;20519;-59
2022/03/30 01:45:22;;;;;;;16.75;8.75;;;;;;;;;;10466488;27;20086;-59
2022/03/30 01:50:21;;;;;;;11.60;8.05;;;;;;;;;;10465938;27;20039;-58
2022/03/30 01:55:19;;;;;;;13.98;8.48;;;;;;;;;;10466233;27;20089;-59
2022/03/30 02:00:19;;;;;;;13.38;8.73;;;;;;;;;;10466918;27;20070;-58
2022/03/30 02:05:18;;;;;;;18.35;9.65;;;;;;;;;;10466892;27;20070;-59
2022/03/30 02:10:17;;;;;;;21.38;9.18;;;;;;;;;;10465854;27;20046;-58
2022/03/30 02:15:15;;;;;;;15.38;9.20;;;;;;;;;;10466243;27;20109;-58
2022/03/30 02:20:15;;;;;;;20.88;9.13;;;;;;;;;;10465864;27;20042;-59
2022/03/30 02:25:13;;;;;;;17.25;8.50;;;;;;;;;;10472802;27;20463;-58
2022/03/30 02:30:12;;;;;;;13.95;8.95;;;;;;;;;;10474641;27;20170;-59
2022/03/30 02:35:10;;;;;;;13.57;8.88;;;;;;;;;;10474245;27;20066;-58
2022/03/30 02:40:11;;;;;;;16.60;8.98;;;;;;;;;;10473770;27;20483;-58
2022/03/30 02:45:09;;;;;;;15.75;9.70;;;;;;;;;;10472591;27;20070;-59
2022/03/30 02:50:08;;;;;;;15.07;10.52;;;;;;;;;;10465417;27;20069;-59
2022/03/30 02:55:07;;;;;;;17.13;8.95;;;;;;;;;;10450791;27;20047;-58
2022/03/30 03:00:07;;;;;;;14.48;9.55;;;;;;;;;;10444022;27;20099;-58
2022/03/30 03:05:06;;;;;;;16.55;9.63;;;;;;;;;;10444722;27;20046;-59
2022/03/30 03:10:04;;;;;;;11.48;9.13;;;;;;;;;;10469994;27;20085;-59
2022/03/30 03:15:03;;;;;;;17.85;9.77;;;;;;;;;;10472706;27;20104;-59
2022/03/30 03:20:03;;;;;;;17.05;9.57;;;;;;;;;;10472702;27;20503;-58
2022/03/30 03:25:01;;;;;;;18.95;10.23;;;;;;;;;;10471834;27;20058;-58
2022/03/30 03:30:00;;;;;;;15.25;10.45;;;;;;;;;;10471127;27;20070;-58
2022/03/30 03:34:58;;;;;;;18.88;10.13;;;;;;;;;;10468631;27;20081;-59
2022/03/30 03:39:58;;;;;;;15.10;9.55;;;;;;;;;;10471332;27;20074;-59
2022/03/30 03:44:56;;;;;;;13.93;9.30;;;;;;;;;;10470533;27;20066;-59
2022/03/30 03:49:54;;;;;;;14.25;10.15;;;;;;;;;;10471290;27;20066;-58
2022/03/30 03:54:53;;;;;;;16.75;10.55;;;;;;;;;;10463844;27;20085;-59
2022/03/30 03:59:52;;;;;;;18.42;10.68;;;;;;;;;;10469328;27;20062;-59
2022/03/30 04:04:51;;;;;;;13.52;10.65;;;;;;;;;;10470300;27;20093;-59
2022/03/30 04:09:49;;;;;;;22.23;11.30;;;;;;;;;;10469852;27;20159;-59
2022/03/30 04:14:47;;;;;;;17.70;10.77;;;;;;;;;;10469919;27;20039;-59
2022/03/30 04:19:47;;;;;;;20.80;10.48;;;;;;;;;;10467254;27;20054;-59
2022/03/30 04:24:45;;;;;;;17.70;10.90;;;;;;;;;;10439994;27;20043;-59
2022/03/30 04:29:43;;;;;;;20.27;10.73;;;;;;;;;;10462243;27;20101;-58
2022/03/30 04:34:42;;;;;;;17.60;10.32;;;;;;;;;;10460715;27;20058;-58
2022/03/30 04:39:41;;;;;;;17.15;11.27;;;;;;;;;;10464204;27;20050;-57
2022/03/30 04:44:41;;;;;;;13.65;9.80;;;;;;;;;;10468424;27;20050;-58
2022/03/30 04:49:39;;;;;;;20.13;10.15;;;;;;;;;;10467777;27;20082;-58
2022/03/30 04:54:38;;;;;;;14.88;9.70;;;;;;;;;;10461172;27;20058;-59
2022/03/30 04:59:37;;;;;;;15.95;11.40;;;;;;;;;;10480970;27;20423;-59
2022/03/30 05:04:35;;;;;;;22.02;11.32;;;;;;;;;;10478159;27;20046;-58
2022/03/30 05:09:34;;;;;;;19.23;10.48;;;;;;;;;;10435415;27;20074;-58
2022/03/30 05:14:33;;;;;;;14.82;10.90;;;;;;;;;;10457777;27;20503;-58
2022/03/30 05:19:32;;;;;;;14.63;9.43;;;;;;;;;;10463926;27;20173;-58
2022/03/30 05:24:30;;;;;;;18.10;9.65;;;;;;;;;;10462321;27;20059;-58
2022/03/30 05:29:29;;;;;;;18.70;10.45;;;;;;;;;;10475657;27;20075;-58
2022/03/30 05:34:27;;;;;;;17.50;10.23;;;;;;;;;;10477287;27;20566;-57
2022/03/30 05:39:27;;;;;;;16.80;9.55;;;;;;;;;;10477692;27;20350;-56
2022/03/30 05:44:25;;;;;;;16.85;9.25;;;;;;;;;;10465454;27;20070;-58
2022/03/30 05:49:24;;;;;;;15.88;10.85;;;;;;;;;;10464573;27;20514;-59
2022/03/30 05:54:22;;;;;;;18.67;10.73;;;;;;;;;;10447523;27;20043;-58
2022/03/30 05:59:22;;;;;;;18.42;10.07;;;;;;;;;;10470909;27;20062;-57
2022/03/30 06:04:20;;;;;;;14.30;9.77;;;;;;;;;;10473686;27;20468;-59
2022/03/30 06:09:19;;;;;;;15.75;11.15;;;;;;;;;;10472689;27;20074;-57
2022/03/30 06:14:37;;;;;;;18.95;10.23;;;;;;;;;;10462910;27;20073;-58
2022/03/30 06:19:36;;;;;;;16.45;10.98;;;;;;;;;;10466469;27;20280;-58
2022/03/30 06:24:35;;;;;;;16.55;11.63;;;;;;;;;;10472881;27;20071;-57
2022/03/30 06:29:33;;;;;;;19.02;13.10;;;;;;;;;;10467413;27;20075;-59
2022/03/30 06:34:33;;;;;;;17.67;12.80;;;;;;;;;;10470324;27;20074;-59
2022/03/30 06:39:32;;;;;;;18.05;12.57;;;;;;;;;;10470946;27;20059;-59
2022/03/30 06:44:35;;;;;;;17.20;13.07;;;;;;;;;;10473368;27;20073;-59
2022/03/30 06:49:35;;;;;;;22.00;13.10;;;;;;;;;;10471878;27;20074;-59
2022/03/30 06:54:34;;;;;;;16.40;12.13;;;;;;;;;;10454261;27;20074;-59
2022/03/30 06:59:32;;;;;;;22.08;13.70;;;;;;;;;;10467219;27;20092;-59
2022/03/30 07:04:31;;;;;;;23.02;13.48;;;;;;;;;;10469051;27;20081;-58
2022/03/30 07:14:47;;;;;;;27.70;13.02;;;;;;;;;;10464912;27;20074;-58
2022/03/30 07:19:45;;;;;;;22.15;12.73;;;;;;;;;;10459803;27;20074;-59
2022/03/30 07:24:45;;;;;;;20.92;12.57;;;;;;;;;;10457611;27;20073;-59
2022/03/30 07:29:43;;;;;;;20.45;11.00;;;;;;;;;;10458247;27;20104;-59
2022/03/30 07:34:41;;;;;;;20.30;12.63;;;;;;;;;;10447886;27;20063;-59
2022/03/30 07:39:40;;;;;;;22.67;11.15;;;;;;;;;;10462354;27;20063;-58
2022/03/30 07:44:40;;;;;;;21.10;12.07;;;;;;;;;;10471282;27;20070;-57
2022/03/30 07:49:38;;;;;;;20.88;12.57;;;;;;;;;;10476464;27;20074;-58
2022/03/30 07:54:37;;;;;;;21.52;11.65;;;;;;;;;;10473717;27;20444;-58
2022/03/30 07:59:35;;;;;;;18.08;11.10;;;;;;;;;;10473240;27;20443;-58
2022/03/30 08:04:35;;;;;;;20.05;11.98;;;;;;;;;;10449823;27;20062;-58
2022/03/30 08:09:36;;;;;;;20.42;11.10;;;;;;;;;;10443028;27;20102;-57
2022/03/30 08:14:34;;;;;;;18.60;12.10;;;;;;;;;;10468058;27;20076;-58
2022/03/30 08:19:32;;;;;;;17.73;10.57;;;;;;;;;;10452072;27;20063;-58
2022/03/30 08:24:32;;;;;;;20.38;11.63;;;;;;;;;;10465406;27;20059;-58
2022/03/30 08:29:30;;;;;;;20.98;11.25;;;;;;;;;;10463899;27;20332;-58
2022/03/30 08:34:29;;;;;;;17.63;11.70;;;;;;;;;;10463923;27;20054;-58
2022/03/30 08:39:28;;;;;;;16.13;10.30;;;;;;;;;;10479821;27;20071;-58
2022/03/30 08:44:27;;;;;;;26.10;12.02;;;;;;;;;;10474991;27;20082;-58
2022/03/30 08:49:26;;;;;;;17.23;11.18;;;;;;;;;;10479701;27;20510;-58
2022/03/30 08:54:24;;;;;;;25.65;10.95;;;;;;;;;;10464282;27;20062;-58
2022/03/30 08:59:28;;;;;;;21.20;11.48;;;;;;;;;;10452362;27;20073;-58
2022/03/30 09:04:26;;;;;;;20.13;10.52;;;;;;;;;;10459130;27;20047;-58
2022/03/30 09:09:29;;;;;;;15.95;11.15;;;;;;;;;;10469100;27;20070;-59
2022/03/30 09:14:30;;;;;;;23.83;11.05;;;;;;;;;;10451186;27;20066;-58
2022/03/30 09:19:29;;;;;;;15.93;9.45;;;;;;;;;;10455382;27;20093;-59
2022/03/30 09:24:28;;;;;;;19.55;12.10;;;;;;;;;;10466721;27;20460;-58
2022/03/30 09:29:28;;;;;;;19.83;11.18;;;;;;;;;;10466828;27;20097;-58
2022/03/30 09:34:49;;;;;;;18.50;9.93;;;;;;;;;;10462004;27;20082;-58
2022/03/30 09:39:49;;;;;;;17.40;11.20;;;;;;;;;;10462960;27;20089;-58
2022/03/30 09:44:49;;;;;;;16.55;10.52;;;;;;;;;;10463824;27;20506;-59
2022/03/30 09:49:50;;;;;;;16.92;10.77;;;;;;;;;;10466174;27;20074;-58
2022/03/30 09:54:49;;;;;;;25.08;13.85;;;;;;;;;;10454298;27;20067;-59
2022/03/30 10:00:02;;;;;;;18.45;11.63;;;;;;;;;;10437387;28;20089;-59
2022/03/30 10:05:07;;;;;;;19.80;11.45;;;;;;;;;;10438441;27;20079;-58
2022/03/30 10:10:07;;;;;;;13.65;9.43;;;;;;;;;;10463055;27;20085;-58
2022/03/30 10:15:06;;;;;;;9.02;7.05;;;;;;;;;;10439959;27;20035;-59
2022/03/30 10:20:07;;;;;;;9.23;6.85;;;;;;;;;;10462513;27;20070;-58
2022/03/30 10:25:15;;;;;;;11.32;7.00;;;;;;;;;;10465336;27;20526;-58
2022/03/30 10:30:13;;;;;;;18.13;6.85;;;;;;;;;;10465609;27;20077;-58
2022/03/30 10:35:14;;;;;;;21.42;10.82;;;;;;;;;;10458191;27;20058;-58
2022/03/30 10:40:16;;;;;;;22.67;11.85;;;;;;;;;;10463792;27;20089;-57
2022/03/30 10:45:18;;;;;;;16.48;10.65;;;;;;;;;;10466095;27;20058;-58
2022/03/30 10:50:32;;;;;;;15.52;10.57;;;;;;;;;;10472202;27;20495;-58
2022/03/30 10:55:36;;;;;;;28.10;11.80;;;;;;;;;;10455471;27;20043;-58
2022/03/30 11:00:36;;;;;;;24.88;12.32;;;;;;;;;;10465855;27;20458;-58
2022/03/30 11:05:36;;;;;;;19.35;11.57;;;;;;;;;;10443995;27;20430;-58
2022/03/30 11:10:45;;;;;;;17.85;11.30;;;;;;;;;;10442644;27;20469;-57
2022/03/30 11:16:07;;;;;;;27.67;12.57;;;;;;;;;;10462762;27;20483;-57
2022/03/30 11:21:20;;;;;;;18.65;12.63;;;;;;;;;;10485843;27;20491;-58
2022/03/30 11:26:18;;;;;;;18.60;11.82;;;;;;;;;;10480664;27;20419;-58
2022/03/30 11:31:20;;;;;;;13.75;11.57;;;;;;;;;;10476361;27;20070;-59
2022/03/30 11:36:26;;;;;;;18.35;11.63;;;;;;;;;;10485696;27;20034;-59
2022/03/30 11:41:25;;;;;;;17.30;12.32;;;;;;;;;;10479548;27;20042;-59
2022/03/30 11:46:24;;;;;;;25.15;12.07;;;;;;;;;;10471275;27;20071;-59
2022/03/30 11:51:27;;;;;;;21.60;10.52;;;;;;;;;;10470533;27;20075;-59
2022/03/30 11:56:25;;;;;;;19.52;12.18;;;;;;;;;;10470669;27;20093;-60
2022/03/30 12:01:24;;;;;;;22.35;11.68;;;;;;;;;;10469994;27;20046;-58
2022/03/30 12:06:22;;;;;;;22.40;12.13;;;;;;;;;;10469208;27;20043;-58
2022/03/30 12:11:22;;;;;;;24.08;11.00;;;;;;;;;;10470271;27;20066;-58
2022/03/30 12:16:21;;;;;;;21.30;11.05;;;;;;;;;;10470423;27;20093;-59
2022/03/30 12:21:21;;;;;;;24.48;13.60;;;;;;;;;;10441424;27;20063;-58
2022/03/30 12:26:19;;;;;;;19.30;10.73;;;;;;;;;;10440037;27;20086;-58
2022/03/30 12:31:19;;;;;;;17.35;11.25;;;;;;;;;;10440608;27;20055;-57
2022/03/30 12:36:18;;;;;;;21.05;12.18;;;;;;;;;;10439016;27;20063;-58
2022/03/30 12:41:23;;;;;;;21.60;12.25;;;;;;;;;;10440614;27;20144;-58
2022/03/30 12:46:23;;;;;;;15.43;11.05;;;;;;;;;;10451848;27;20043;-60
2022/03/30 12:51:21;;;;;;;23.08;12.55;;;;;;;;;;10467831;27;20066;-59
2022/03/30 12:56:20;;;;;;;24.38;10.82;;;;;;;;;;10472925;27;20126;-58
2022/03/30 13:01:33;;;;;;;16.52;11.98;;;;;;;;;;10480926;27;20050;-59
2022/03/30 13:06:31;;;;;;;25.77;13.50;;;;;;;;;;10479940;27;20030;-58
2022/03/30 13:11:30;;;;;;;16.70;11.27;;;;;;;;;;10480080;27;20491;-58
2022/03/30 13:16:29;;;;;;;16.58;11.95;;;;;;;;;;10475687;27;20039;-57
2022/03/30 13:21:35;;;;;;;19.90;12.52;;;;;;;;;;10472131;27;20085;-61
2022/03/30 13:26:37;;;;;;;19.15;12.25;;;;;;;;;;10473744;27;20105;-60
2022/03/30 13:31:37;;;;;;;19.80;12.20;;;;;;;;;;10476438;27;20100;-59
2022/03/30 13:36:38;;;;;;;23.33;14.07;;;;;;;;;;10479443;27;20042;-59
2022/03/30 13:41:36;;;;;;;19.27;12.13;;;;;;;;;;10474990;27;20046;-59
2022/03/30 13:46:35;;;;;;;20.50;13.27;;;;;;;;;;10464353;27;20085;-58
2022/03/30 13:51:33;;;;;;;19.67;14.32;;;;;;;;;;10453923;27;20078;-58
2022/03/30 13:56:33;;;;;;;19.50;13.93;;;;;;;;;;10466131;27;20063;-58
2022/03/30 14:01:32;;;;;;;20.40;13.10;;;;;;;;;;10458333;27;20062;-57
2022/03/30 14:06:31;;;;;;;24.52;13.45;;;;;;;;;;10443740;27;20109;-58
2022/03/30 14:11:29;;;;;;;21.58;12.90;;;;;;;;;;10466621;27;20070;-60
2022/03/30 14:16:29;;;;;;;16.63;12.82;;;;;;;;;;10475890;27;20071;-58
2022/03/30 14:21:27;;;;;;;20.00;15.00;;;;;;;;;;10484165;27;20077;-58
2022/03/30 14:26:26;;;;;;;18.98;14.50;;;;;;;;;;10480337;27;20062;-58
2022/03/30 14:31:24;;;;;;;19.63;13.05;;;;;;;;;;10469442;27;20078;-58
2022/03/30 14:36:24;;;;;;;18.90;13.93;;;;;;;;;;10477782;27;20050;-58
2022/03/30 14:41:22;;;;;;;20.27;14.73;;;;;;;;;;10471396;27;20375;-59
2022/03/30 14:46:20;;;;;;;20.08;13.82;;;;;;;;;;10442661;27;20046;-58
2022/03/30 14:51:19;;;;;;;19.55;14.50;;;;;;;;;;10445263;27;20494;-58
2022/03/30 14:56:19;;;;;;;24.50;14.88;;;;;;;;;;10460935;27;20061;-57
2022/03/30 15:01:17;;;;;;;36.03;23.80;;;;;;;;;;10471953;27;20043;-59
2022/03/30 15:06:17;;;;;;;24.63;16.95;;;;;;;;;;10454547;27;20078;-59
2022/03/30 15:11:16;;;;;;;26.20;17.42;;;;;;;;;;10472552;27;20067;-59
2022/03/30 15:16:16;;;;;;;24.88;15.95;;;;;;;;;;10472504;27;20393;-59
2022/03/30 15:21:15;;;;;;;29.95;16.60;;;;;;;;;;10470988;27;20050;-58
2022/03/30 15:26:13;;;;;;;33.22;15.20;;;;;;;;;;10472144;27;20051;-58
2022/03/30 15:31:11;;;;;;;40.58;29.83;;;;;;;;;;10475227;27;20491;-58
2022/03/30 15:36:13;;;;;;;24.38;12.90;;;;;;;;;;10484989;27;20507;-59
2022/03/30 15:41:13;;;;;;;21.45;14.68;;;;;;;;;;10480507;27;20058;-59
2022/03/30 15:46:12;;;;;;;25.95;14.98;;;;;;;;;;10441929;27;20089;-58
2022/03/30 15:51:12;;;;;;;21.25;15.85;;;;;;;;;;10442528;27;20074;-59
2022/03/30 15:56:13;;;;;;;24.70;15.35;;;;;;;;;;10442211;27;20408;-58
2022/03/30 16:01:11;;;;;;;23.67;15.13;;;;;;;;;;10443018;27;20515;-58
2022/03/30 16:06:10;;;;;;;23.17;16.48;;;;;;;;;;10474912;27;20050;-59
2022/03/30 16:16:26;;;;;;;25.75;16.83;;;;;;;;;;10468242;27;20129;-58
2022/03/30 16:21:24;;;;;;;27.95;16.90;;;;;;;;;;10453430;27;20068;-58
2022/03/30 16:26:24;;;;;;;42.97;33.85;;;;;;;;;;10469217;27;20093;-58
2022/03/30 16:31:23;;;;;;;30.08;24.13;;;;;;;;;;10468037;27;20046;-58
2022/03/30 16:36:22;;;;;;;31.15;20.45;;;;;;;;;;10468547;27;20450;-58
2022/03/30 16:41:20;;;;;;;25.80;17.35;;;;;;;;;;10466114;27;20097;-58
2022/03/30 16:46:20;;;;;;;43.92;29.92;;;;;;;;;;10467251;27;20063;-58
2022/03/30 16:51:20;;;;;;;32.65;17.63;;;;;;;;;;10468326;27;20436;-58
2022/03/30 16:56:19;;;;;;;42.85;29.38;;;;;;;;;;10467717;27;20043;-58
2022/03/30 17:01:17;;;;;;;34.13;25.13;;;;;;;;;;10472521;27;20047;-57
2022/03/30 17:06:20;;;;;;;32.42;20.13;;;;;;;;;;10481567;27;20061;-58
2022/03/30 17:11:19;;;;;;;34.40;22.52;;;;;;;;;;10481179;27;20074;-58
2022/03/30 17:16:17;;;;;;;36.25;22.80;;;;;;;;;;10475516;27;20383;-58
2022/03/30 17:21:16;;;;;;;44.83;24.90;;;;;;;;;;10464945;27;20073;-58
2022/03/30 17:26:16;;;;;;;52.65;36.70;;;;;;;;;;10463459;27;20066;-59
2022/03/30 17:31:14;;;;;;;63.47;35.95;;;;;;;;;;10434093;27;20483;-59
2022/03/30 17:36:15;;;;;;;36.88;25.52;;;;;;;;;;10450854;27;20078;-59
2022/03/30 17:41:15;;;;;;;40.33;24.75;;;;;;;;;;10448112;27;20075;-57
2022/03/30 17:46:16;;;;;;;42.50;24.67;;;;;;;;;;10449171;27;20496;-58
2022/03/30 17:56:30;;;;;;;34.67;20.50;;;;;;;;;;10479215;27;20472;-59
2022/03/30 18:01:30;;;;;;;32.42;22.30;;;;;;;;;;10478382;27;20057;-59
2022/03/30 18:06:28;;;;;;;41.80;26.65;;;;;;;;;;10461687;27;20058;-58
2022/03/30 18:11:26;;;;;;;33.85;22.85;;;;;;;;;;10467656;27;20074;-58
2022/03/30 18:16:25;;;;;;;31.83;20.85;;;;;;;;;;10456684;27;20081;-57
2022/03/30 18:21:26;;;;;;;26.38;16.17;;;;;;;;;;10450626;27;20069;-58
2022/03/30 18:26:24;;;;;;;31.85;15.77;;;;;;;;;;10470977;27;20073;-56
2022/03/30 18:31:22;;;;;;;26.50;17.17;;;;;;;;;;10468803;27;20070;-58
2022/03/30 18:36:22;;;;;;;28.35;19.27;;;;;;;;;;10467184;27;20070;-58
2022/03/30 18:41:22;;;;;;;24.17;15.23;;;;;;;;;;10440937;27;20551;-58
2022/03/30 18:46:20;;;;;;;24.75;14.23;;;;;;;;;;10443538;27;20498;-58
2022/03/30 18:51:19;;;;;;;25.63;14.90;;;;;;;;;;10453386;27;20098;-58
2022/03/30 18:56:17;;;;;;;23.23;13.73;;;;;;;;;;10459801;27;20062;-58
2022/03/30 19:01:19;;;;;;;18.13;13.20;;;;;;;;;;10448371;27;20081;-56
2022/03/30 19:06:19;;;;;;;28.35;14.75;;;;;;;;;;10468136;27;20066;-57
2022/03/30 19:11:18;;;;;;;28.20;14.45;;;;;;;;;;10471729;27;20459;-57
2022/03/30 19:16:16;;;;;;;23.85;15.07;;;;;;;;;;10463758;27;20396;-56
2022/03/30 19:21:16;;;;;;;18.25;13.73;;;;;;;;;;10460323;27;20461;-59
2022/03/30 19:26:18;;;;;;;26.33;12.85;;;;;;;;;;10476073;27;20043;-57
2022/03/30 19:31:16;;;;;;;20.70;13.68;;;;;;;;;;10450668;27;20070;-59
2022/03/30 19:36:16;;;;;;;25.27;13.68;;;;;;;;;;10449532;27;20417;-58
2022/03/30 19:41:15;;;;;;;21.98;14.32;;;;;;;;;;10453609;27;20073;-58
2022/03/30 19:46:15;;;;;;;26.42;15.00;;;;;;;;;;10458608;27;20077;-59
2022/03/30 19:51:13;;;;;;;24.67;14.13;;;;;;;;;;10474294;27;20130;-59
2022/03/30 19:56:13;;;;;;;21.52;14.95;;;;;;;;;;10467283;27;20546;-57
2022/03/30 20:01:17;;;;;;;21.65;14.82;;;;;;;;;;10464343;27;20078;-57
2022/03/30 20:06:16;;;;;;;18.30;14.93;;;;;;;;;;10443516;27;20486;-58
2022/03/30 20:11:15;;;;;;;27.75;14.48;;;;;;;;;;10444713;27;20496;-58
2022/03/30 20:16:14;;;;;;;28.70;20.75;;;;;;;;;;10473323;27;20456;-59
2022/03/30 20:21:14;;;;;;;24.77;15.88;;;;;;;;;;10457445;27;20070;-59
2022/03/30 20:26:12;;;;;;;21.85;11.82;;;;;;;;;;10466844;27;20403;-57
2022/03/30 20:31:13;;;;;;;16.80;12.57;;;;;;;;;;10463312;27;20071;-58
2022/03/30 20:36:13;;;;;;;19.58;12.02;;;;;;;;;;10433896;27;20047;-60
2022/03/30 20:41:12;;;;;;;18.95;10.10;;;;;;;;;;10468297;27;20043;-57
2022/03/30 20:46:11;;;;;;;16.40;11.55;;;;;;;;;;10466318;27;20093;-58
2022/03/30 20:51:10;;;;;;;16.63;9.98;;;;;;;;;;10465304;27;20070;-58
2022/03/30 20:56:08;;;;;;;14.88;9.45;;;;;;;;;;10469422;27;20085;-57
2022/03/30 21:01:07;;;;;;;17.63;9.50;;;;;;;;;;10474156;27;20059;-58
2022/03/30 21:06:07;;;;;;;19.60;9.55;;;;;;;;;;10471465;27;20499;-58
2022/03/30 21:11:05;;;;;;;13.85;8.43;;;;;;;;;;10472701;27;20062;-58
2022/03/30 21:16:04;;;;;;;15.05;7.72;;;;;;;;;;10463623;27;20440;-58
2022/03/30 21:21:02;;;;;;;15.75;7.30;;;;;;;;;;10437690;27;20077;-57
2022/03/30 21:26:02;;;;;;;19.92;8.05;;;;;;;;;;10463385;27;20657;-58
2022/03/30 21:31:00;;;;;;;18.30;7.40;;;;;;;;;;10447299;27;20481;-58
2022/03/30 21:36:00;;;;;;;11.30;6.65;;;;;;;;;;10467457;27;20062;-57
2022/03/30 21:40:58;;;;;;;17.52;6.82;;;;;;;;;;10446120;27;20089;-58
2022/03/30 21:45:58;;;;;;;11.23;7.43;;;;;;;;;;10467209;27;20067;-57
2022/03/30 21:50:56;;;;;;;14.73;6.50;;;;;;;;;;10466726;27;20055;-58
2022/03/30 21:55:55;;;;;;;13.10;6.35;;;;;;;;;;10466743;27;20187;-58
2022/03/30 22:01:01;;;;;;;13.05;6.60;;;;;;;;;;10466188;27;20543;-58
2022/03/30 22:06:00;;;;;;;12.98;6.38;;;;;;;;;;10446434;27;20082;-59
2022/03/30 22:10:58;;;;;;;14.48;6.50;;;;;;;;;;10446518;27;20058;-58
2022/03/30 22:16:00;;;;;;;15.00;6.43;;;;;;;;;;10465829;27;20074;-58
2022/03/30 22:21:00;;;;;;;17.80;7.07;;;;;;;;;;10466401;27;20082;-58
2022/03/30 22:25:58;;;;;;;18.63;6.80;;;;;;;;;;10445504;27;20039;-58
2022/03/30 22:30:57;;;;;;;14.25;6.65;;;;;;;;;;10466197;27;20065;-59
2022/03/30 22:35:54;;;;;;;16.40;6.45;;;;;;;;;;10466235;27;20399;-57
2022/03/30 22:40:55;;;;;;;16.15;6.68;;;;;;;;;;10471506;27;20053;-55
2022/03/30 22:45:55;;;;;;;14.48;6.70;;;;;;;;;;10471082;27;20078;-56
2022/03/30 22:50:54;;;;;;;22.70;7.07;;;;;;;;;;10473162;27;20079;-58
2022/03/30 22:55:54;;;;;;;17.85;7.15;;;;;;;;;;10473150;27;20097;-59
2022/03/30 23:00:52;;;;;;;15.23;6.55;;;;;;;;;;10476042;27;20500;-58
2022/03/30 23:11:08;;;;;;;16.40;6.53;;;;;;;;;;10481517;27;20042;-58
2022/03/30 23:16:06;;;;;;;22.95;7.00;;;;;;;;;;10471974;27;20055;-58
2022/03/30 23:21:06;;;;;;;17.17;6.35;;;;;;;;;;10475113;27;20043;-57
2022/03/30 23:26:04;;;;;;;19.63;6.00;;;;;;;;;;10485649;27;20042;-58
2022/03/30 23:31:04;;;;;;;10.38;6.43;;;;;;;;;;10485065;27;20070;-58
2022/03/30 23:36:02;;;;;;;11.05;6.43;;;;;;;;;;10480286;27;20409;-56
2022/03/30 23:41:01;;;;;;;16.92;6.45;;;;;;;;;;10450615;27;20477;-56
2022/03/30 23:45:59;;;;;;;16.30;7.75;;;;;;;;;;10471650;27;20082;-57
2022/03/30 23:50:59;;;;;;;10.73;5.90;;;;;;;;;;10450162;27;20526;-58
2022/03/30 23:56:01;;;;;;;12.07;5.95;;;;;;;;;;10450141;27;20530;-58
